Time;durP1;ratioP1;P1;durP2;ratioP2;P2;SDS_P1;SDS_P2;PMS_P1;PMS_P2;Temp;Humidity;BMP_temperature;BMP_pressure;BME280_temperature;BME280_humidity;BME280_pressure;Samples;Min_cycle;Max_cycle;Signal;HPM_P1;HPM_P2
2022/10/25 00:01:36;;;;;;;0.00;0.00;;;13.20;99.90;;;;;;4990751;28;20070;-86
2022/10/25 00:04:04;;;;;;;0.00;0.00;;;13.10;99.90;;;;;;4982856;28;20050;-85
2022/10/25 00:06:31;;;;;;;0.00;0.00;;;;;;;;;;4986452;28;20042;-87
2022/10/25 00:08:58;;;;;;;0.00;0.00;;;;;;;;;;4995321;28;20070;-85
2022/10/25 00:11:27;;;;;;;0.00;0.00;;;13.30;99.90;;;;;;4991917;28;20517;-86
2022/10/25 00:13:56;;;;;;;0.00;0.00;;;13.30;99.90;;;;;;4978652;28;20072;-85
2022/10/25 00:16:27;;;;;;;0.00;0.00;;;13.30;99.90;;;;;;4980477;28;20296;-86
2022/10/25 00:18:55;;;;;;;0.10;0.10;;;13.30;99.90;;;;;;4973306;28;20046;-85
2022/10/25 00:21:23;;;;;;;0.00;0.00;;;13.80;99.90;;;;;;4989570;28;20384;-85
2022/10/25 00:23:50;;;;;;;0.00;0.00;;;13.20;99.90;;;;;;4981640;28;20069;-85
2022/10/25 00:26:18;;;;;;;0.00;0.00;;;13.20;99.90;;;;;;4986820;28;20042;-86
2022/10/25 00:28:45;;;;;;;0.00;0.00;;;;;;;;;;4981036;28;20056;-85
2022/10/25 00:31:14;;;;;;;0.00;0.00;;;13.10;99.90;;;;;;4991589;28;20064;-86
2022/10/25 00:33:42;;;;;;;0.00;0.00;;;13.20;99.90;;;;;;4996167;28;20038;-85
2022/10/25 00:36:12;;;;;;;0.00;0.00;;;13.10;99.90;;;;;;4990234;28;20598;-85
2022/10/25 00:38:40;;;;;;;0.00;0.00;;;13.10;99.90;;;;;;4993007;28;20050;-86
2022/10/25 00:41:07;;;;;;;0.00;0.00;;;13.40;99.90;;;;;;4991291;28;20057;-85
2022/10/25 00:43:36;;;;;;;0.00;0.00;;;13.10;99.90;;;;;;4991318;28;20069;-86
2022/10/25 00:46:08;;;;;;;0.00;0.00;;;13.30;99.90;;;;;;4988502;28;20042;-84
2022/10/25 00:48:36;;;;;;;0.00;0.00;;;13.20;99.90;;;;;;4987474;28;20050;-84
2022/10/25 00:51:03;;;;;;;0.00;0.00;;;13.30;99.90;;;;;;4991118;28;20041;-86
2022/10/25 00:53:35;;;;;;;0.00;0.00;;;13.30;99.90;;;;;;4990344;28;20042;-86
2022/10/25 00:56:09;;;;;;;0.00;0.00;;;13.30;99.90;;;;;;4986121;28;20061;-86
2022/10/25 00:58:37;;;;;;;0.00;0.00;;;15.20;99.90;;;;;;4990647;28;20063;-85
2022/10/25 01:01:07;;;;;;;0.00;0.00;;;13.30;99.90;;;;;;4987170;28;20042;-86
2022/10/25 01:03:36;;;;;;;;;;;13.30;99.90;;;;;;4993144;28;20046;-86
2022/10/25 01:06:06;;;;;;;0.00;0.00;;;13.40;99.90;;;;;;4985402;28;19930;-86
2022/10/25 01:08:35;;;;;;;0.00;0.00;;;13.40;99.90;;;;;;4987770;28;20050;-85
2022/10/25 01:11:02;;;;;;;0.00;0.00;;;;;;;;;;4992370;28;20047;-86
2022/10/25 01:13:29;;;;;;;0.00;0.00;;;;;;;;;;4983641;28;20053;-86
2022/10/25 01:16:04;;;;;;;0.00;0.00;;;13.40;99.90;;;;;;4992195;28;20050;-86
2022/10/25 01:18:42;;;;;;;0.00;0.00;;;13.70;99.90;;;;;;4988227;28;20042;-85
2022/10/25 01:21:34;;;;;;;0.00;0.00;;;13.50;99.90;;;;;;4985612;28;20056;-86
2022/10/25 01:24:29;;;;;;;0.00;0.00;;;13.50;99.90;;;;;;4976257;28;20513;-85
2022/10/25 01:27:27;;;;;;;0.00;0.00;;;13.50;99.90;;;;;;4988605;28;20039;-86
2022/10/25 01:30:05;;;;;;;0.00;0.00;;;13.50;99.90;;;;;;4990597;28;20042;-86
2022/10/25 01:32:39;;;;;;;0.00;0.00;;;13.50;99.90;;;;;;4993814;28;20078;-85
2022/10/25 01:35:14;;;;;;;0.00;0.00;;;13.50;99.90;;;;;;4990426;28;20046;-86
2022/10/25 01:37:52;;;;;;;0.00;0.00;;;13.60;99.90;;;;;;4994378;28;20104;-85
2022/10/25 01:40:25;;;;;;;0.00;0.00;;;13.70;99.90;;;;;;4985088;28;20497;-86
2022/10/25 01:43:00;;;;;;;0.00;0.00;;;14.80;99.90;;;;;;4992831;28;20417;-85
2022/10/25 01:45:30;;;;;;;0.00;0.00;;;13.70;99.90;;;;;;4985632;28;20121;-86
2022/10/25 01:48:04;;;;;;;0.00;0.00;;;13.70;99.90;;;;;;4992896;28;20056;-86
2022/10/25 01:50:37;;;;;;;0.00;0.00;;;14.50;99.90;;;;;;4986094;28;20096;-86
2022/10/25 01:53:04;;;;;;;0.00;0.00;;;;;;;;;;4989470;28;20422;-85
2022/10/25 01:55:36;;;;;;;0.00;0.00;;;13.90;99.90;;;;;;4970502;28;20046;-86
2022/10/25 01:58:12;;;;;;;0.00;0.00;;;13.90;99.90;;;;;;4982497;28;20045;-86
2022/10/25 02:00:52;;;;;;;0.00;0.00;;;13.80;99.90;;;;;;4989892;28;20045;-84
2022/10/25 02:03:27;;;;;;;0.00;0.00;;;13.90;99.90;;;;;;4989553;28;20112;-86
2022/10/25 02:06:07;;;;;;;0.00;0.00;;;13.90;99.90;;;;;;4993907;28;20050;-85
2022/10/25 02:08:35;;;;;;;;;;;13.90;99.90;;;;;;4990687;28;20509;-85
2022/10/25 02:11:08;;;;;;;0.00;0.00;;;14.00;99.90;;;;;;4989569;28;20329;-85
2022/10/25 02:13:43;;;;;;;0.00;0.00;;;13.90;99.90;;;;;;4981511;28;20046;-84
2022/10/25 02:16:15;;;;;;;0.00;0.00;;;13.90;99.90;;;;;;4997084;28;20042;-86
2022/10/25 02:18:48;;;;;;;0.00;0.00;;;11.50;99.90;;;;;;4992038;28;20114;-86
2022/10/25 02:21:17;;;;;;;0.00;0.00;;;13.90;99.90;;;;;;5027314;22;20051;-84
2022/10/25 02:23:45;;;;;;;0.00;0.00;;;14.00;99.90;;;;;;5049008;28;20493;-86
2022/10/25 02:26:14;;;;;;;0.00;0.00;;;14.10;99.90;;;;;;5050488;28;20081;-84
2022/10/25 02:28:41;;;;;;;0.00;0.00;;;14.00;99.90;;;;;;5045362;28;20103;-85
2022/10/25 02:31:13;;;;;;;0.00;0.00;;;14.10;99.90;;;;;;5053918;28;20043;-85
2022/10/25 02:33:42;;;;;;;0.00;0.00;;;14.50;99.90;;;;;;5067684;28;20062;-83
2022/10/25 02:36:12;;;;;;;0.00;0.00;;;14.20;99.90;;;;;;5063772;28;20057;-84
2022/10/25 02:38:40;;;;;;;0.00;0.00;;;14.20;99.90;;;;;;5067008;28;20060;-84
2022/10/25 02:41:07;;;;;;;0.00;0.00;;;;;;;;;;5066071;28;20569;-85
2022/10/25 02:43:34;;;;;;;0.00;0.00;;;14.10;99.90;;;;;;5064000;28;20044;-86
2022/10/25 02:46:06;;;;;;;0.00;0.00;;;14.20;99.90;;;;;;5064776;28;20053;-84
2022/10/25 02:48:33;;;;;;;0.00;0.00;;;14.20;99.90;;;;;;5060740;28;20080;-84
2022/10/25 02:51:00;;;;;;;0.00;0.00;;;14.40;99.90;;;;;;5063190;28;20411;-86
2022/10/25 02:53:28;;;;;;;0.00;0.00;;;14.10;99.90;;;;;;5064367;28;20049;-86
2022/10/25 02:56:00;;;;;;;0.00;0.00;;;14.10;99.90;;;;;;5068944;28;20044;-86
2022/10/25 02:58:30;;;;;;;0.00;0.00;;;14.10;99.90;;;;;;5063646;28;20049;-85
2022/10/25 03:00:57;;;;;;;0.00;0.00;;;;;;;;;;5067409;28;20040;-85
2022/10/25 03:03:24;;;;;;;0.00;0.00;;;14.20;99.90;;;;;;5064130;28;20047;-86
2022/10/25 03:05:52;;;;;;;0.00;0.00;;;;;;;;;;5067653;28;20496;-85
2022/10/25 03:08:19;;;;;;;0.00;0.00;;;14.20;99.90;;;;;;5066627;28;20496;-85
2022/10/25 03:10:48;;;;;;;0.00;0.00;;;14.20;99.90;;;;;;5066166;28;20393;-85
2022/10/25 03:13:15;;;;;;;0.00;0.00;;;14.20;99.90;;;;;;5062822;28;20043;-86
2022/10/25 03:15:42;;;;;;;0.00;0.00;;;14.20;99.90;;;;;;5065173;28;21529;-86
2022/10/25 03:18:09;;;;;;;0.00;0.00;;;14.20;99.90;;;;;;5071307;28;20423;-85
2022/10/25 03:20:36;;;;;;;0.00;0.00;;;14.30;99.90;;;;;;5063376;28;20049;-84
2022/10/25 03:23:03;;;;;;;0.00;0.00;;;16.40;99.90;;;;;;5069594;28;20039;-86
2022/10/25 03:25:30;;;;;;;0.00;0.00;;;14.30;99.90;;;;;;5066829;28;20048;-85
2022/10/25 03:28:01;;;;;;;0.00;0.00;;;14.10;99.90;;;;;;5068192;28;20044;-85
2022/10/25 03:30:28;;;;;;;0.00;0.00;;;16.00;99.90;;;;;;5072524;28;20080;-86
2022/10/25 03:32:55;;;;;;;0.00;0.00;;;14.10;99.90;;;;;;5073391;28;20040;-86
2022/10/25 03:35:23;;;;;;;0.00;0.00;;;14.20;99.90;;;;;;5068489;28;20041;-86
2022/10/25 03:37:51;;;;;;;0.00;0.00;;;14.20;99.90;;;;;;5070519;28;20120;-86
2022/10/25 03:40:19;;;;;;;0.00;0.00;;;14.20;99.90;;;;;;5070488;28;20075;-84
2022/10/25 03:42:46;;;;;;;0.00;0.00;;;;;;;;;;5081524;28;20041;-86
2022/10/25 03:45:15;;;;;;;0.00;0.00;;;14.20;99.90;;;;;;5066839;28;20508;-85
2022/10/25 03:47:42;;;;;;;0.00;0.00;;;;;;;;;;5065820;28;20059;-86
2022/10/25 03:50:09;;;;;;;0.00;0.00;;;14.30;99.90;;;;;;5068613;28;20508;-85
2022/10/25 03:52:36;;;;;;;0.00;0.00;;;14.30;99.90;;;;;;5067431;28;20028;-84
2022/10/25 03:55:04;;;;;;;0.00;0.00;;;14.30;99.90;;;;;;5083565;28;20052;-85
2022/10/25 03:57:32;;;;;;;0.00;0.00;;;14.40;99.90;;;;;;5071596;28;20044;-85
2022/10/25 03:59:59;;;;;;;0.00;0.00;;;14.30;99.90;;;;;;5064948;28;20048;-85
2022/10/25 04:02:27;;;;;;;0.00;0.00;;;14.30;99.90;;;;;;5064825;28;20048;-86
2022/10/25 04:04:54;;;;;;;0.00;0.00;;;;;;;;;;5079625;28;20559;-85
2022/10/25 04:07:21;;;;;;;0.00;0.00;;;14.30;99.90;;;;;;5059551;28;20536;-85
2022/10/25 04:09:48;;;;;;;0.00;0.00;;;;;;;;;;5065812;28;20497;-85
2022/10/25 04:12:15;;;;;;;0.00;0.00;;;14.40;99.90;;;;;;5060558;28;20491;-85
2022/10/25 04:14:42;;;;;;;0.00;0.00;;;;;;;;;;5060889;28;20075;-86
2022/10/25 04:17:09;;;;;;;0.00;0.00;;;14.40;99.90;;;;;;5068969;28;20067;-85
2022/10/25 04:19:37;;;;;;;0.00;0.00;;;14.40;99.90;;;;;;5062862;28;20119;-83
2022/10/25 04:22:04;;;;;;;0.00;0.00;;;15.10;99.90;;;;;;5068133;28;20632;-86
2022/10/25 04:24:31;;;;;;;0.00;0.00;;;14.40;99.90;;;;;;5072817;28;20047;-85
2022/10/25 04:26:58;;;;;;;0.00;0.00;;;14.40;99.90;;;;;;5070354;28;20043;-85
2022/10/25 04:29:25;;;;;;;0.00;0.00;;;;;;;;;;5065789;28;20549;-85
2022/10/25 04:31:52;;;;;;;0.00;0.00;;;14.50;99.90;;;;;;5069329;28;20041;-86
2022/10/25 04:34:19;;;;;;;0.00;0.00;;;;;;;;;;5075710;28;20044;-85
2022/10/25 04:36:47;;;;;;;0.00;0.00;;;14.40;99.90;;;;;;5063706;28;20044;-85
2022/10/25 04:39:14;;;;;;;0.00;0.00;;;;;;;;;;5072324;28;20083;-86
2022/10/25 04:41:42;;;;;;;0.00;0.00;;;14.40;99.90;;;;;;5067833;28;20494;-85
2022/10/25 04:44:10;;;;;;;0.00;0.00;;;14.40;99.90;;;;;;5067972;28;20048;-85
2022/10/25 04:46:36;;;;;;;0.00;0.00;;;14.40;99.90;;;;;;5068717;28;20146;-85
2022/10/25 04:49:03;;;;;;;0.00;0.00;;;14.40;99.90;;;;;;5062816;28;20066;-85
2022/10/25 04:51:30;;;;;;;0.00;0.00;;;14.30;99.90;;;;;;5068231;28;20045;-86
2022/10/25 04:53:58;;;;;;;0.00;0.00;;;14.20;99.90;;;;;;5067088;28;20044;-86
2022/10/25 04:56:28;;;;;;;0.00;0.00;;;14.30;99.90;;;;;;5068865;28;20047;-86
2022/10/25 04:58:55;;;;;;;0.00;0.00;;;14.30;99.90;;;;;;5063274;28;20455;-86
2022/10/25 05:01:22;;;;;;;0.00;0.00;;;14.50;99.90;;;;;;5072618;28;20029;-86
2022/10/25 05:03:49;;;;;;;0.00;0.00;;;;;;;;;;5072356;28;20413;-86
2022/10/25 05:06:18;;;;;;;0.00;0.00;;;14.30;99.90;;;;;;5073659;28;20071;-85
2022/10/25 05:08:47;;;;;;;0.00;0.00;;;14.30;99.90;;;;;;5081676;28;20045;-85
2022/10/25 05:11:16;;;;;;;0.00;0.00;;;14.30;99.90;;;;;;5070214;28;20302;-86
2022/10/25 05:13:44;;;;;;;0.00;0.00;;;14.30;99.90;;;;;;5086040;28;20032;-86
2022/10/25 05:16:16;;;;;;;0.00;0.00;;;14.40;99.90;;;;;;5070059;28;20049;-84
2022/10/25 05:18:46;;;;;;;0.00;0.00;;;;;;;;;;5072412;28;20131;-86
2022/10/25 05:21:15;;;;;;;0.00;0.00;;;14.30;99.90;;;;;;5065571;28;20049;-85
2022/10/25 05:23:42;;;;;;;0.03;0.03;;;14.30;99.90;;;;;;5068059;28;20051;-86
2022/10/25 05:26:12;;;;;;;0.00;0.00;;;14.40;99.90;;;;;;5066574;28;20055;-85
2022/10/25 05:28:41;;;;;;;0.00;0.00;;;14.30;99.90;;;;;;5075374;28;20067;-86
2022/10/25 05:31:12;;;;;;;0.00;0.00;;;14.40;99.90;;;;;;5073028;28;20108;-86
2022/10/25 05:33:39;;;;;;;0.00;0.00;;;14.30;99.90;;;;;;5074287;28;20078;-86
2022/10/25 05:36:06;;;;;;;0.00;0.00;;;14.60;99.90;;;;;;5075035;28;20469;-84
2022/10/25 05:38:33;;;;;;;0.00;0.00;;;;;;;;;;5070837;28;20072;-85
2022/10/25 05:41:04;;;;;;;0.00;0.00;;;14.30;99.90;;;;;;5063657;28;20059;-83
2022/10/25 05:43:31;;;;;;;0.00;0.00;;;;;;;;;;5083969;28;20051;-86
2022/10/25 05:46:05;;;;;;;0.00;0.00;;;14.30;99.90;;;;;;5070342;28;20040;-86
2022/10/25 05:48:33;;;;;;;0.00;0.00;;;14.30;99.90;;;;;;5073637;28;20044;-85
2022/10/25 05:51:08;;;;;;;0.00;0.00;;;14.30;99.90;;;;;;5071750;28;20047;-86
2022/10/25 05:53:57;;;;;;;0.10;0.10;;;14.30;99.90;;;;;;5063509;28;20063;-85
2022/10/25 05:56:27;;;;;;;0.03;0.00;;;14.20;99.90;;;;;;5064166;28;20058;-85
2022/10/25 05:58:55;;;;;;;0.00;0.00;;;14.30;99.90;;;;;;5070863;28;20079;-85
2022/10/25 06:01:25;;;;;;;0.00;0.00;;;14.20;99.90;;;;;;5068298;28;20043;-85
2022/10/25 06:03:54;;;;;;;0.00;0.00;;;14.20;99.90;;;;;;5071038;28;20036;-86
2022/10/25 06:06:21;;;;;;;0.10;0.10;;;14.30;99.90;;;;;;5070324;28;20067;-86
2022/10/25 06:08:48;;;;;;;0.00;0.00;;;14.10;99.90;;;;;;5071437;28;20070;-86
2022/10/25 06:11:17;;;;;;;0.00;0.00;;;14.10;99.90;;;;;;5068482;28;20036;-86
2022/10/25 06:13:44;;;;;;;0.00;0.00;;;14.10;99.90;;;;;;5068401;28;20045;-85
2022/10/25 06:16:13;;;;;;;0.00;0.00;;;14.10;99.90;;;;;;5068738;28;20091;-86
2022/10/25 06:18:42;;;;;;;0.00;0.00;;;14.10;99.90;;;;;;5069548;28;20079;-85
2022/10/25 06:21:11;;;;;;;0.00;0.00;;;14.20;99.90;;;;;;5072516;28;20044;-85
2022/10/25 06:23:39;;;;;;;0.00;0.00;;;14.20;99.90;;;;;;5055625;28;20071;-85
2022/10/25 06:26:08;;;;;;;0.00;0.00;;;14.20;99.90;;;;;;5067996;28;20048;-85
2022/10/25 06:28:35;;;;;;;0.00;0.00;;;;;;;;;;5079194;28;20115;-85
2022/10/25 06:31:04;;;;;;;0.00;0.00;;;14.30;99.90;;;;;;5063646;28;20043;-86
2022/10/25 06:33:31;;;;;;;0.00;0.00;;;14.30;99.90;;;;;;5067221;28;20480;-87
2022/10/25 06:36:01;;;;;;;0.00;0.00;;;14.30;99.90;;;;;;5067547;28;20036;-84
2022/10/25 06:38:28;;;;;;;;;;;16.30;99.90;;;;;;5066954;28;20068;-85
2022/10/25 06:40:57;;;;;;;0.00;0.00;;;14.40;99.90;;;;;;5060396;28;20006;-84
2022/10/25 06:43:24;;;;;;;0.00;0.00;;;14.40;99.90;;;;;;5066648;28;20131;-85
2022/10/25 06:45:51;;;;;;;0.00;0.00;;;14.30;99.90;;;;;;5070940;28;20416;-85
2022/10/25 06:48:18;;;;;;;0.00;0.00;;;14.30;99.90;;;;;;5064896;28;20041;-85
2022/10/25 06:50:45;;;;;;;0.00;0.00;;;14.30;99.90;;;;;;5068379;28;20040;-86
2022/10/25 06:53:19;;;;;;;0.00;0.00;;;14.30;99.90;;;;;;5059049;28;20047;-85
2022/10/25 06:55:48;;;;;;;0.00;0.00;;;14.30;99.90;;;;;;5061984;28;20049;-86
2022/10/25 06:58:15;;;;;;;0.00;0.00;;;14.30;99.90;;;;;;5065097;28;20403;-84
2022/10/25 07:00:41;;;;;;;0.00;0.00;;;14.20;99.90;;;;;;5061481;28;20052;-84
2022/10/25 07:03:14;;;;;;;0.00;0.00;;;;;;;;;;5073151;28;20484;-87
2022/10/25 07:05:41;;;;;;;0.00;0.00;;;14.20;99.90;;;;;;5073243;28;20045;-86
2022/10/25 07:08:08;;;;;;;0.00;0.00;;;14.20;99.90;;;;;;5070201;28;20051;-86
2022/10/25 07:10:36;;;;;;;0.00;0.00;;;14.30;99.90;;;;;;5066151;28;20047;-85
2022/10/25 07:13:03;;;;;;;0.00;0.00;;;;;;;;;;5070324;28;20041;-85
2022/10/25 07:15:30;;;;;;;0.00;0.00;;;14.30;99.90;;;;;;5066545;28;20115;-86
2022/10/25 07:17:57;;;;;;;0.00;0.00;;;14.30;99.90;;;;;;5072368;28;20082;-87
2022/10/25 07:20:24;;;;;;;0.00;0.00;;;15.20;99.90;;;;;;5072251;28;20047;-85
2022/10/25 07:22:51;;;;;;;0.00;0.00;;;14.30;99.90;;;;;;5071476;28;20043;-86
2022/10/25 07:25:24;;;;;;;0.00;0.00;;;14.70;99.90;;;;;;5083152;28;20041;-85
2022/10/25 07:27:53;;;;;;;0.00;0.00;;;14.30;99.90;;;;;;5071812;28;20037;-86
2022/10/25 07:30:19;;;;;;;0.00;0.00;;;14.30;99.90;;;;;;5071786;28;20044;-86
2022/10/25 07:32:46;;;;;;;0.00;0.00;;;14.40;99.90;;;;;;5069330;28;20075;-84
2022/10/25 07:35:13;;;;;;;0.00;0.00;;;14.30;99.90;;;;;;5071856;28;20428;-86
2022/10/25 07:37:40;;;;;;;0.00;0.00;;;14.40;99.90;;;;;;5067693;28;20057;-85
2022/10/25 07:40:08;;;;;;;0.00;0.00;;;14.40;99.90;;;;;;5066908;28;20052;-85
2022/10/25 07:42:35;;;;;;;0.00;0.00;;;;;;;;;;5067079;28;20029;-86
2022/10/25 07:45:04;;;;;;;0.00;0.00;;;14.40;99.90;;;;;;5071320;28;20485;-86
2022/10/25 07:47:31;;;;;;;0.00;0.00;;;14.50;99.90;;;;;;5070979;28;20068;-85
2022/10/25 07:49:59;;;;;;;0.00;0.00;;;;;;;;;;5063456;28;20044;-86
2022/10/25 07:52:26;;;;;;;0.00;0.00;;;;;;;;;;5062815;28;20043;-87
2022/10/25 07:54:53;;;;;;;0.00;0.00;;;14.50;99.90;;;;;;5074394;28;20062;-85
2022/10/25 07:57:20;;;;;;;0.00;0.00;;;;;;;;;;5065092;28;20516;-84
2022/10/25 07:59:47;;;;;;;0.00;0.00;;;;;;;;;;5067307;28;20045;-85
2022/10/25 08:02:15;;;;;;;0.00;0.00;;;14.60;99.90;;;;;;5068466;28;20050;-85
2022/10/25 08:04:43;;;;;;;0.00;0.00;;;;;;;;;;5072021;28;20119;-85
2022/10/25 08:07:09;;;;;;;0.10;0.10;;;14.70;99.90;;;;;;5069064;28;20087;-85
2022/10/25 08:09:36;;;;;;;0.00;0.00;;;14.60;99.90;;;;;;5069617;28;20033;-86
2022/10/25 08:12:04;;;;;;;0.00;0.00;;;16.80;99.90;;;;;;5066665;28;20040;-86
2022/10/25 08:14:31;;;;;;;0.00;0.00;;;14.80;99.90;;;;;;5069567;28;20044;-84
2022/10/25 08:17:03;;;;;;;0.00;0.00;;;14.90;99.90;;;;;;5071626;28;20053;-84
2022/10/25 08:19:32;;;;;;;0.00;0.00;;;14.90;99.90;;;;;;5066184;28;20044;-85
2022/10/25 08:24:33;;;;;;;0.00;0.00;;;15.00;99.90;;;;;;5093687;28;20062;-84
2022/10/25 08:27:01;;;;;;;0.00;0.00;;;;;;;;;;5086662;28;20028;-84
2022/10/25 08:29:28;;;;;;;0.00;0.00;;;;;;;;;;5086066;28;20512;-86
2022/10/25 08:31:55;;;;;;;0.00;0.00;;;;;;;;;;5082693;28;20100;-84
2022/10/25 08:34:22;;;;;;;0.00;0.00;;;15.10;99.90;;;;;;5086805;28;20357;-85
2022/10/25 08:36:50;;;;;;;0.00;0.00;;;15.30;99.90;;;;;;5085646;28;20056;-85
2022/10/25 08:39:17;;;;;;;0.00;0.00;;;;;;;;;;5089611;28;20044;-86
2022/10/25 08:41:51;;;;;;;0.00;0.00;;;15.10;99.90;;;;;;5091608;28;20059;-87
2022/10/25 08:44:27;;;;;;;0.00;0.00;;;15.10;99.90;;;;;;5087644;28;20060;-85
2022/10/25 08:46:58;;;;;;;0.00;0.00;;;15.10;99.90;;;;;;5088827;28;20079;-87
2022/10/25 08:49:32;;;;;;;0.00;0.00;;;15.10;99.90;;;;;;5087741;28;20071;-85
2022/10/25 08:52:01;;;;;;;0.00;0.00;;;15.10;99.90;;;;;;5088615;28;20052;-84
2022/10/25 08:54:33;;;;;;;0.00;0.00;;;15.10;99.90;;;;;;5084434;28;20037;-87
2022/10/25 08:57:06;;;;;;;0.00;0.00;;;15.20;99.90;;;;;;5083892;28;20068;-83
2022/10/25 08:59:46;;;;;;;0.00;0.00;;;15.40;99.90;;;;;;5087295;28;20040;-86
2022/10/25 09:02:22;;;;;;;0.00;0.00;;;15.30;99.90;;;;;;5087537;28;20053;-84
2022/10/25 09:04:50;;;;;;;0.00;0.00;;;15.90;99.90;;;;;;5083792;28;20040;-87
2022/10/25 09:07:46;;;;;;;0.00;0.00;;;15.70;99.90;;;;;;5087927;28;20072;-85
2022/10/25 09:10:21;;;;;;;0.00;0.00;;;15.70;99.90;;;;;;5087094;28;20080;-84
2022/10/25 09:12:57;;;;;;;0.00;0.00;;;15.40;99.90;;;;;;5081285;28;20044;-84
2022/10/25 09:15:37;;;;;;;0.00;0.00;;;15.50;99.90;;;;;;5086404;28;20041;-84
2022/10/25 09:18:14;;;;;;;0.00;0.00;;;15.40;99.90;;;;;;5081266;28;20048;-85
2022/10/25 09:20:47;;;;;;;0.00;0.00;;;15.40;99.90;;;;;;5087567;28;20067;-83
2022/10/25 09:23:24;;;;;;;0.00;0.00;;;15.60;99.90;;;;;;5094934;28;20028;-85
2022/10/25 09:26:02;;;;;;;0.00;0.00;;;16.00;99.90;;;;;;5081887;28;20052;-86
2022/10/25 09:28:44;;;;;;;0.00;0.00;;;15.80;99.90;;;;;;5079734;28;20052;-87
2022/10/25 09:31:15;;;;;;;0.00;0.00;;;15.40;99.90;;;;;;5081799;28;20072;-86
2022/10/25 09:33:46;;;;;;;0.00;0.00;;;15.50;99.90;;;;;;5083114;28;20064;-85
2022/10/25 09:36:13;;;;;;;0.00;0.00;;;15.50;99.90;;;;;;5089722;28;20063;-87
2022/10/25 09:38:45;;;;;;;0.00;0.00;;;15.60;99.90;;;;;;5082834;28;20085;-83
2022/10/25 09:41:16;;;;;;;0.00;0.00;;;15.70;99.90;;;;;;5085626;28;20051;-86
2022/10/25 09:43:49;;;;;;;0.00;0.00;;;15.90;99.90;;;;;;5083857;28;20040;-87
2022/10/25 09:46:22;;;;;;;0.00;0.00;;;15.90;99.90;;;;;;5087905;28;20103;-85
2022/10/25 09:48:54;;;;;;;0.00;0.00;;;15.80;99.90;;;;;;5088060;28;20064;-88
2022/10/25 09:51:26;;;;;;;0.00;0.00;;;15.80;99.90;;;;;;5089199;28;20044;-85
2022/10/25 09:53:55;;;;;;;0.00;0.00;;;17.20;99.90;;;;;;5087120;28;20044;-84
2022/10/25 09:56:22;;;;;;;0.00;0.00;;;15.70;99.90;;;;;;5084707;28;20045;-88
2022/10/25 09:58:49;;;;;;;0.00;0.00;;;15.70;99.90;;;;;;5091170;28;20063;-86
2022/10/25 10:01:19;;;;;;;0.00;0.00;;;15.70;99.90;;;;;;5074296;28;20076;-86
2022/10/25 10:03:46;;;;;;;0.00;0.00;;;;;;;;;;5078781;28;20041;-85
2022/10/25 10:06:24;;;;;;;0.00;0.00;;;15.60;99.90;;;;;;5086193;28;20070;-86
2022/10/25 10:08:56;;;;;;;0.00;0.00;;;16.60;99.90;;;;;;5083731;28;20528;-85
2022/10/25 10:11:24;;;;;;;0.00;0.00;;;15.70;99.90;;;;;;5084939;28;20079;-88
2022/10/25 10:13:55;;;;;;;0.00;0.00;;;15.60;99.90;;;;;;5089077;28;20063;-86
2022/10/25 10:16:26;;;;;;;0.00;0.00;;;15.60;99.90;;;;;;5087920;28;20098;-85
2022/10/25 10:19:12;;;;;;;0.00;0.00;;;16.10;99.90;;;;;;5085494;28;20035;-88
2022/10/25 10:21:42;;;;;;;0.00;0.00;;;15.60;99.90;;;;;;5081035;28;20054;-87
2022/10/25 10:24:16;;;;;;;0.00;0.00;;;15.70;99.90;;;;;;5086429;28;20071;-85
2022/10/25 10:26:47;;;;;;;0.00;0.00;;;15.70;99.90;;;;;;5083481;28;20048;-87
2022/10/25 10:29:19;;;;;;;0.00;0.00;;;15.70;99.90;;;;;;5082809;28;20106;-87
2022/10/25 10:31:48;;;;;;;0.00;0.00;;;15.80;99.90;;;;;;5080568;28;20051;-87
2022/10/25 10:34:23;;;;;;;0.00;0.00;;;15.80;99.90;;;;;;5077810;28;20060;-87
2022/10/25 10:37:05;;;;;;;0.00;0.00;;;15.90;99.90;;;;;;5086986;28;20056;-86
2022/10/25 10:39:33;;;;;;;0.00;0.00;;;15.90;99.90;;;;;;5079315;28;20051;-89
2022/10/25 10:42:13;;;;;;;0.00;0.00;;;15.90;99.90;;;;;;5082589;28;20047;-87
2022/10/25 10:44:41;;;;;;;0.00;0.00;;;;;;;;;;5078032;28;20041;-88
2022/10/25 10:47:16;;;;;;;0.00;0.00;;;15.90;99.90;;;;;;5086734;28;20040;-84
2022/10/25 10:49:46;;;;;;;0.00;0.00;;;16.10;99.90;;;;;;5087559;28;20061;-86
2022/10/25 10:52:27;;;;;;;0.00;0.00;;;16.10;99.90;;;;;;5082682;28;20055;-88
2022/10/25 10:55:06;;;;;;;0.00;0.00;;;16.10;99.90;;;;;;5082940;28;20045;-88
2022/10/25 10:57:34;;;;;;;0.00;0.00;;;16.20;99.90;;;;;;5088333;28;20062;-84
2022/10/25 11:00:03;;;;;;;0.00;0.00;;;16.30;99.90;;;;;;5082501;28;20047;-87
2022/10/25 11:02:41;;;;;;;0.00;0.00;;;16.30;99.90;;;;;;5077692;28;20112;-85
2022/10/25 11:05:29;;;;;;;0.00;0.00;;;16.20;99.90;;;;;;5082572;28;20048;-87
2022/10/25 11:08:00;;;;;;;0.00;0.00;;;16.30;99.90;;;;;;5086867;28;20047;-88
2022/10/25 11:10:37;;;;;;;0.00;0.00;;;16.40;99.90;;;;;;5077676;28;20072;-84
2022/10/25 11:13:38;;;;;;;0.00;0.00;;;16.40;99.90;;;;;;5075046;28;20041;-86
2022/10/25 11:16:53;;;;;;;0.00;0.00;;;18.00;99.90;;;;;;5066899;28;20052;-86
2022/10/25 11:19:38;;;;;;;0.00;0.00;;;16.20;99.90;;;;;;5084487;28;20055;-85
2022/10/25 11:33:32;;;;;;;0.00;0.00;;;16.40;99.90;;;;;;5059854;28;20045;-85
2022/10/25 11:36:10;;;;;;;0.00;0.00;;;16.40;99.90;;;;;;5061831;28;20116;-82
2022/10/25 11:38:54;;;;;;;0.00;0.00;;;17.20;99.90;;;;;;5059749;28;20068;-84
2022/10/25 11:41:31;;;;;;;0.00;0.00;;;16.30;99.90;;;;;;5070372;28;20064;-83
2022/10/25 11:46:38;;;;;;;0.00;0.00;;;16.40;99.90;;;;;;4960274;28;20057;-86
2022/10/25 11:49:23;;;;;;;0.00;0.00;;;16.50;99.90;;;;;;4959414;28;20534;-84
2022/10/25 11:52:14;;;;;;;0.00;0.00;;;16.50;99.90;;;;;;4961504;28;20129;-86
2022/10/25 11:54:46;;;;;;;0.00;0.00;;;16.50;99.90;;;;;;4970789;28;20081;-83
2022/10/25 11:57:25;;;;;;;0.00;0.00;;;16.60;99.90;;;;;;4970267;28;20043;-83
2022/10/25 12:00:01;;;;;;;0.00;0.00;;;16.70;99.90;;;;;;4964666;28;20050;-83
2022/10/25 12:02:58;;;;;;;0.00;0.00;;;16.60;99.90;;;;;;4970150;28;20036;-85
2022/10/25 12:05:35;;;;;;;0.00;0.00;;;16.60;99.90;;;;;;4966442;28;20070;-86
2022/10/25 12:08:13;;;;;;;0.00;0.00;;;16.40;99.90;;;;;;4984603;28;20442;-83
2022/10/25 12:10:42;;;;;;;0.00;0.00;;;16.80;99.90;;;;;;4964328;28;20066;-84
2022/10/25 12:13:14;;;;;;;0.00;0.00;;;16.30;99.90;;;;;;4978612;28;20058;-85
2022/10/25 12:15:45;;;;;;;0.00;0.00;;;16.30;99.90;;;;;;4976259;28;20034;-85
2022/10/25 12:18:15;;;;;;;0.00;0.00;;;16.40;99.90;;;;;;4974905;28;20046;-83
2022/10/25 12:20:46;;;;;;;0.00;0.00;;;16.40;99.90;;;;;;4975100;28;20498;-84
2022/10/25 12:23:16;;;;;;;0.00;0.00;;;16.50;99.90;;;;;;4968590;28;20053;-84
2022/10/25 12:25:46;;;;;;;0.00;0.00;;;16.40;99.90;;;;;;4986195;28;20067;-84
2022/10/25 12:28:22;;;;;;;0.00;0.00;;;16.90;99.90;;;;;;4967136;28;20534;-84
2022/10/25 12:30:55;;;;;;;0.00;0.00;;;16.30;99.90;;;;;;4968716;28;20521;-83
2022/10/25 12:33:30;;;;;;;0.00;0.00;;;16.20;99.90;;;;;;4966176;28;20047;-84
2022/10/25 12:36:03;;;;;;;0.00;0.00;;;19.20;99.90;;;;;;4971023;28;20039;-84
2022/10/25 12:38:33;;;;;;;0.00;0.00;;;16.50;99.90;;;;;;4972223;28;20085;-83
2022/10/25 12:41:02;;;;;;;;;;;16.60;99.90;;;;;;4971396;28;20074;-85
2022/10/25 12:43:34;;;;;;;0.00;0.00;;;16.30;99.90;;;;;;4972822;28;19922;-84
2022/10/25 12:46:13;;;;;;;0.00;0.00;;;16.30;99.90;;;;;;4998145;28;20044;-82
2022/10/25 12:48:59;;;;;;;0.00;0.00;;;16.20;99.90;;;;;;5011852;28;20064;-84
2022/10/25 12:51:44;;;;;;;0.00;0.00;;;16.30;99.90;;;;;;5007789;28;20874;-85
2022/10/25 12:54:47;;;;;;;0.00;0.00;;;16.40;99.90;;;;;;5009449;28;20045;-85
2022/10/25 12:57:22;;;;;;;0.00;0.00;;;16.40;99.90;;;;;;5008816;28;20108;-84
2022/10/25 13:00:00;;;;;;;0.00;0.00;;;16.50;99.90;;;;;;5025860;28;20050;-84
2022/10/25 13:03:06;;;;;;;0.00;0.00;;;16.40;99.90;;;;;;5012283;28;20051;-84
2022/10/25 13:06:06;;;;;;;0.00;0.00;;;16.30;99.90;;;;;;5008990;28;20048;-83
2022/10/25 13:08:37;;;;;;;0.00;0.00;;;16.50;99.90;;;;;;5009958;28;20048;-84
2022/10/25 13:11:06;;;;;;;0.00;0.00;;;16.40;99.90;;;;;;5017418;28;20056;-85
2022/10/25 13:13:37;;;;;;;0.00;0.00;;;16.30;99.90;;;;;;5027535;28;20069;-87
2022/10/25 13:16:07;;;;;;;0.00;0.00;;;16.20;99.90;;;;;;5008394;28;20042;-86
2022/10/25 13:18:40;;;;;;;0.00;0.00;;;16.20;99.90;;;;;;5013889;28;20037;-84
2022/10/25 13:21:09;;;;;;;0.00;0.00;;;16.10;99.90;;;;;;5011308;28;20034;-86
2022/10/25 13:23:57;;;;;;;0.00;0.00;;;17.20;99.90;;;;;;5007965;28;20042;-81
2022/10/25 13:26:52;;;;;;;0.00;0.00;;;16.30;99.90;;;;;;5012933;28;20046;-86
2022/10/25 13:29:46;;;;;;;0.00;0.00;;;16.20;99.90;;;;;;5021219;28;20046;-87
2022/10/25 13:32:17;;;;;;;0.00;0.00;;;16.30;99.90;;;;;;5025899;28;20034;-86
2022/10/25 13:34:44;;;;;;;0.00;0.00;;;;;;;;;;5009728;28;20042;-86
2022/10/25 13:37:38;;;;;;;0.00;0.00;;;16.20;99.90;;;;;;5009049;28;20437;-85
2022/10/25 13:40:19;;;;;;;0.00;0.00;;;16.20;99.90;;;;;;5016288;28;20054;-85